sensor_id;sensor_type;location;lat;lon;timestamp;temperature;humidity
9425;DHT22;17139;52.140;11.636;2023-08-01T00:00:40;17.00;63.70
9425;DHT22;17139;52.140;11.636;2023-08-01T00:03:08;16.90;63.70
9425;DHT22;17139;52.140;11.636;2023-08-01T00:05:35;16.90;63.80
9425;DHT22;17139;52.140;11.636;2023-08-01T00:08:04;17.00;65.30
9425;DHT22;17139;52.140;11.636;2023-08-01T00:10:31;17.00;63.80
9425;DHT22;17139;52.140;11.636;2023-08-01T00:12:58;16.80;63.60
9425;DHT22;17139;52.140;11.636;2023-08-01T00:15:25;17.50;64.90
9425;DHT22;17139;52.140;11.636;2023-08-01T00:17:52;17.20;63.50
9425;DHT22;17139;52.140;11.636;2023-08-01T00:20:19;17.00;63.80
9425;DHT22;17139;52.140;11.636;2023-08-01T00:22:46;16.70;63.80
9425;DHT22;17139;52.140;11.636;2023-08-01T00:25:15;16.60;64.10
9425;DHT22;17139;52.140;11.636;2023-08-01T00:27:42;16.60;64.40
9425;DHT22;17139;52.140;11.636;2023-08-01T00:30:09;16.50;64.30
9425;DHT22;17139;52.140;11.636;2023-08-01T00:32:37;16.40;64.30
9425;DHT22;17139;52.140;11.636;2023-08-01T00:35:05;16.40;64.30
9425;DHT22;17139;52.140;11.636;2023-08-01T00:37:32;17.20;66.00
9425;DHT22;17139;52.140;11.636;2023-08-01T00:39:59;17.00;64.10
9425;DHT22;17139;52.140;11.636;2023-08-01T00:42:27;16.80;64.30
9425;DHT22;17139;52.140;11.636;2023-08-01T00:44:54;16.70;64.30
9425;DHT22;17139;52.140;11.636;2023-08-01T00:47:21;16.60;64.30
9425;DHT22;17139;52.140;11.636;2023-08-01T00:49:49;16.60;64.60
9425;DHT22;17139;52.140;11.636;2023-08-01T00:52:17;16.50;64.60
9425;DHT22;17139;52.140;11.636;2023-08-01T00:54:44;16.50;64.60
9425;DHT22;17139;52.140;11.636;2023-08-01T00:57:11;16.50;64.60
9425;DHT22;17139;52.140;11.636;2023-08-01T00:59:40;16.50;64.60
9425;DHT22;17139;52.140;11.636;2023-08-01T01:02:07;16.50;64.60
9425;DHT22;17139;52.140;11.636;2023-08-01T01:04:34;16.40;64.50
9425;DHT22;17139;52.140;11.636;2023-08-01T01:07:03;17.30;65.80
9425;DHT22;17139;52.140;11.636;2023-08-01T01:09:30;17.10;64.30
9425;DHT22;17139;52.140;11.636;2023-08-01T01:11:58;17.30;65.60
9425;DHT22;17139;52.140;11.636;2023-08-01T01:14:26;17.00;64.50
9425;DHT22;17139;52.140;11.636;2023-08-01T01:16:54;16.80;64.70
9425;DHT22;17139;52.140;11.636;2023-08-01T01:19:21;16.70;64.90
9425;DHT22;17139;52.140;11.636;2023-08-01T01:21:50;16.50;64.90
9425;DHT22;17139;52.140;11.636;2023-08-01T01:24:18;16.50;65.00
9425;DHT22;17139;52.140;11.636;2023-08-01T01:26:46;16.40;65.00
9425;DHT22;17139;52.140;11.636;2023-08-01T01:29:15;16.40;65.00
9425;DHT22;17139;52.140;11.636;2023-08-01T01:31:43;16.40;65.00
9425;DHT22;17139;52.140;11.636;2023-08-01T01:34:10;16.60;66.10
9425;DHT22;17139;52.140;11.636;2023-08-01T01:36:37;16.50;64.80
9425;DHT22;17139;52.140;11.636;2023-08-01T01:39:05;16.40;65.00
9425;DHT22;17139;52.140;11.636;2023-08-01T01:41:32;16.40;65.10
9425;DHT22;17139;52.140;11.636;2023-08-01T01:43:59;16.30;65.10
9425;DHT22;17139;52.140;11.636;2023-08-01T01:46:26;16.30;65.10
9425;DHT22;17139;52.140;11.636;2023-08-01T01:48:53;16.40;65.20
9425;DHT22;17139;52.140;11.636;2023-08-01T01:51:21;16.40;65.10
9425;DHT22;17139;52.140;11.636;2023-08-01T01:53:48;16.40;65.10
9425;DHT22;17139;52.140;11.636;2023-08-01T01:56:16;16.40;65.00
9425;DHT22;17139;52.140;11.636;2023-08-01T01:58:43;16.40;65.00
9425;DHT22;17139;52.140;11.636;2023-08-01T02:01:10;16.40;64.90
9425;DHT22;17139;52.140;11.636;2023-08-01T02:03:37;17.20;65.90
9425;DHT22;17139;52.140;11.636;2023-08-01T02:06:04;17.00;64.40
9425;DHT22;17139;52.140;11.636;2023-08-01T02:08:31;17.30;65.50
9425;DHT22;17139;52.140;11.636;2023-08-01T02:10:58;17.00;64.50
9425;DHT22;17139;52.140;11.636;2023-08-01T02:13:28;16.90;64.80
9425;DHT22;17139;52.140;11.636;2023-08-01T02:15:55;16.80;65.00
9425;DHT22;17139;52.140;11.636;2023-08-01T02:18:22;16.70;65.20
9425;DHT22;17139;52.140;11.636;2023-08-01T02:20:49;16.60;65.10
9425;DHT22;17139;52.140;11.636;2023-08-01T02:23:16;16.50;65.10
9425;DHT22;17139;52.140;11.636;2023-08-01T02:25:43;16.50;65.20
9425;DHT22;17139;52.140;11.636;2023-08-01T02:28:10;16.50;65.20
9425;DHT22;17139;52.140;11.636;2023-08-01T02:30:39;16.70;66.20
9425;DHT22;17139;52.140;11.636;2023-08-01T02:33:06;16.70;65.00
9425;DHT22;17139;52.140;11.636;2023-08-01T02:35:33;16.50;65.10
9425;DHT22;17139;52.140;11.636;2023-08-01T02:38:00;17.40;65.70
9425;DHT22;17139;52.140;11.636;2023-08-01T02:40:28;17.10;64.70
9425;DHT22;17139;52.140;11.636;2023-08-01T02:42:55;16.90;65.00
9425;DHT22;17139;52.140;11.636;2023-08-01T02:45:22;16.80;65.20
9425;DHT22;17139;52.140;11.636;2023-08-01T02:47:52;16.70;65.40
9425;DHT22;17139;52.140;11.636;2023-08-01T02:50:19;16.60;65.40
9425;DHT22;17139;52.140;11.636;2023-08-01T02:52:46;16.50;65.50
9425;DHT22;17139;52.140;11.636;2023-08-01T02:55:13;16.50;65.50
9425;DHT22;17139;52.140;11.636;2023-08-01T02:57:40;16.50;65.50
9425;DHT22;17139;52.140;11.636;2023-08-01T03:00:07;17.20;66.20
9425;DHT22;17139;52.140;11.636;2023-08-01T03:02:37;17.00;64.90
9425;DHT22;17139;52.140;11.636;2023-08-01T03:05:08;16.90;65.20
9425;DHT22;17139;52.140;11.636;2023-08-01T03:07:35;16.80;65.30
9425;DHT22;17139;52.140;11.636;2023-08-01T03:10:03;16.70;66.10
9425;DHT22;17139;52.140;11.636;2023-08-01T03:12:30;16.70;65.60
9425;DHT22;17139;52.140;11.636;2023-08-01T03:14:57;16.70;65.50
9425;DHT22;17139;52.140;11.636;2023-08-01T03:17:24;16.70;65.50
9425;DHT22;17139;52.140;11.636;2023-08-01T03:19:51;16.60;65.30
9425;DHT22;17139;52.140;11.636;2023-08-01T03:22:19;16.60;65.50
9425;DHT22;17139;52.140;11.636;2023-08-01T03:24:47;16.50;65.60
9425;DHT22;17139;52.140;11.636;2023-08-01T03:27:14;16.50;65.70
9425;DHT22;17139;52.140;11.636;2023-08-01T03:29:41;16.40;65.80
9425;DHT22;17139;52.140;11.636;2023-08-01T03:32:08;16.40;65.80
9425;DHT22;17139;52.140;11.636;2023-08-01T03:34:35;16.70;67.00
9425;DHT22;17139;52.140;11.636;2023-08-01T03:37:03;16.70;65.70
9425;DHT22;17139;52.140;11.636;2023-08-01T03:39:31;16.60;65.70
9425;DHT22;17139;52.140;11.636;2023-08-01T03:41:58;16.60;65.80
9425;DHT22;17139;52.140;11.636;2023-08-01T03:44:25;16.60;65.80
9425;DHT22;17139;52.140;11.636;2023-08-01T03:46:52;16.60;65.80
9425;DHT22;17139;52.140;11.636;2023-08-01T03:49:19;16.60;65.70
9425;DHT22;17139;52.140;11.636;2023-08-01T03:51:46;16.60;65.70
9425;DHT22;17139;52.140;11.636;2023-08-01T03:54:13;16.50;65.70
9425;DHT22;17139;52.140;11.636;2023-08-01T03:56:42;16.90;67.00
9425;DHT22;17139;52.140;11.636;2023-08-01T03:59:10;16.80;65.70
9425;DHT22;17139;52.140;11.636;2023-08-01T04:01:38;16.70;65.70
9425;DHT22;17139;52.140;11.636;2023-08-01T04:04:05;17.50;66.60
9425;DHT22;17139;52.140;11.636;2023-08-01T04:06:32;17.20;65.30
9425;DHT22;17139;52.140;11.636;2023-08-01T04:08:59;17.10;65.60
9425;DHT22;17139;52.140;11.636;2023-08-01T04:11:27;17.00;65.80
9425;DHT22;17139;52.140;11.636;2023-08-01T04:13:56;16.90;65.90
9425;DHT22;17139;52.140;11.636;2023-08-01T04:16:23;16.80;66.00
9425;DHT22;17139;52.140;11.636;2023-08-01T04:18:51;16.80;66.00
9425;DHT22;17139;52.140;11.636;2023-08-01T04:21:18;16.80;66.10
9425;DHT22;17139;52.140;11.636;2023-08-01T04:23:45;16.70;66.10
9425;DHT22;17139;52.140;11.636;2023-08-01T04:26:12;17.20;67.20
9425;DHT22;17139;52.140;11.636;2023-08-01T04:28:39;17.10;66.60
9425;DHT22;17139;52.140;11.636;2023-08-01T04:31:07;17.00;66.60
9425;DHT22;17139;52.140;11.636;2023-08-01T04:33:34;17.00;66.10
9425;DHT22;17139;52.140;11.636;2023-08-01T04:36:01;16.90;66.20
9425;DHT22;17139;52.140;11.636;2023-08-01T04:38:28;16.80;66.30
9425;DHT22;17139;52.140;11.636;2023-08-01T04:40:55;16.70;66.30
9425;DHT22;17139;52.140;11.636;2023-08-01T04:43:22;16.80;66.40
9425;DHT22;17139;52.140;11.636;2023-08-01T04:45:49;16.70;66.30
9425;DHT22;17139;52.140;11.636;2023-08-01T04:48:18;16.70;66.30
9425;DHT22;17139;52.140;11.636;2023-08-01T04:50:45;16.70;66.40
9425;DHT22;17139;52.140;11.636;2023-08-01T04:53:12;16.70;66.40
9425;DHT22;17139;52.140;11.636;2023-08-01T04:55:40;16.60;66.30
9425;DHT22;17139;52.140;11.636;2023-08-01T04:58:07;16.70;66.40
9425;DHT22;17139;52.140;11.636;2023-08-01T05:00:34;16.90;67.30
9425;DHT22;17139;52.140;11.636;2023-08-01T05:03:01;16.80;66.20
9425;DHT22;17139;52.140;11.636;2023-08-01T05:05:29;16.80;66.40
9425;DHT22;17139;52.140;11.636;2023-08-01T05:07:56;16.80;66.50
9425;DHT22;17139;52.140;11.636;2023-08-01T05:10:23;16.70;66.40
9425;DHT22;17139;52.140;11.636;2023-08-01T05:12:50;16.70;66.40
9425;DHT22;17139;52.140;11.636;2023-08-01T05:15:17;16.70;66.50
9425;DHT22;17139;52.140;11.636;2023-08-01T05:17:44;16.70;66.40
9425;DHT22;17139;52.140;11.636;2023-08-01T05:20:11;16.70;66.40
9425;DHT22;17139;52.140;11.636;2023-08-01T05:22:40;16.70;66.40
9425;DHT22;17139;52.140;11.636;2023-08-01T05:25:07;17.60;67.00
9425;DHT22;17139;52.140;11.636;2023-08-01T05:27:34;17.40;65.80
9425;DHT22;17139;52.140;11.636;2023-08-01T05:30:01;17.80;66.50
9425;DHT22;17139;52.140;11.636;2023-08-01T05:32:28;17.50;65.60
9425;DHT22;17139;52.140;11.636;2023-08-01T05:34:55;18.00;66.30
9425;DHT22;17139;52.140;11.636;2023-08-01T05:37:22;17.70;65.60
9425;DHT22;17139;52.140;11.636;2023-08-01T05:39:51;17.40;66.00
9425;DHT22;17139;52.140;11.636;2023-08-01T05:42:18;17.30;66.30
9425;DHT22;17139;52.140;11.636;2023-08-01T05:44:45;17.20;66.40
9425;DHT22;17139;52.140;11.636;2023-08-01T05:47:12;17.20;66.50
9425;DHT22;17139;52.140;11.636;2023-08-01T05:49:39;17.90;66.90
9425;DHT22;17139;52.140;11.636;2023-08-01T05:52:07;17.80;66.00
9425;DHT22;17139;52.140;11.636;2023-08-01T05:54:34;18.00;66.80
9425;DHT22;17139;52.140;11.636;2023-08-01T05:57:03;17.80;65.80
9425;DHT22;17139;52.140;11.636;2023-08-01T05:59:30;17.70;66.20
9425;DHT22;17139;52.140;11.636;2023-08-01T06:01:57;17.60;66.30
9425;DHT22;17139;52.140;11.636;2023-08-01T06:04:24;17.70;66.50
9425;DHT22;17139;52.140;11.636;2023-08-01T06:06:51;17.70;66.50
9425;DHT22;17139;52.140;11.636;2023-08-01T06:09:18;17.80;66.40
9425;DHT22;17139;52.140;11.636;2023-08-01T06:11:45;17.80;66.30
9425;DHT22;17139;52.140;11.636;2023-08-01T06:14:14;17.90;66.20
9425;DHT22;17139;52.140;11.636;2023-08-01T06:16:41;18.20;66.30
9425;DHT22;17139;52.140;11.636;2023-08-01T06:19:08;18.20;65.50
9425;DHT22;17139;52.140;11.636;2023-08-01T06:21:35;18.20;65.70
9425;DHT22;17139;52.140;11.636;2023-08-01T06:24:02;18.10;65.60
9425;DHT22;17139;52.140;11.636;2023-08-01T06:26:29;18.10;65.70
9425;DHT22;17139;52.140;11.636;2023-08-01T06:28:56;18.10;65.70
9425;DHT22;17139;52.140;11.636;2023-08-01T06:31:24;18.10;65.50
9425;DHT22;17139;52.140;11.636;2023-08-01T06:33:51;18.10;65.60
9425;DHT22;17139;52.140;11.636;2023-08-01T06:36:18;18.20;65.50
9425;DHT22;17139;52.140;11.636;2023-08-01T06:38:45;18.20;65.40
9425;DHT22;17139;52.140;11.636;2023-08-01T06:41:12;18.20;65.40
9425;DHT22;17139;52.140;11.636;2023-08-01T06:43:39;18.20;65.30
9425;DHT22;17139;52.140;11.636;2023-08-01T06:46:06;19.10;64.80
9425;DHT22;17139;52.140;11.636;2023-08-01T06:48:35;18.80;64.40
9425;DHT22;17139;52.140;11.636;2023-08-01T06:51:02;18.90;65.00
9425;DHT22;17139;52.140;11.636;2023-08-01T06:53:29;18.80;64.80
9425;DHT22;17139;52.140;11.636;2023-08-01T06:55:56;18.80;65.00
9425;DHT22;17139;52.140;11.636;2023-08-01T06:58:23;18.80;65.00
9425;DHT22;17139;52.140;11.636;2023-08-01T07:00:50;18.80;65.00
9425;DHT22;17139;52.140;11.636;2023-08-01T07:03:17;18.80;64.90
9425;DHT22;17139;52.140;11.636;2023-08-01T07:05:46;18.80;64.80
9425;DHT22;17139;52.140;11.636;2023-08-01T07:08:13;18.80;64.90
9425;DHT22;17139;52.140;11.636;2023-08-01T07:10:40;18.80;64.90
9425;DHT22;17139;52.140;11.636;2023-08-01T07:13:07;18.90;64.90
9425;DHT22;17139;52.140;11.636;2023-08-01T07:15:34;19.80;63.80
9425;DHT22;17139;52.140;11.636;2023-08-01T07:18:01;20.20;62.80
9425;DHT22;17139;52.140;11.636;2023-08-01T07:20:28;19.80;63.10
9425;DHT22;17139;52.140;11.636;2023-08-01T07:22:57;20.40;62.50
9425;DHT22;17139;52.140;11.636;2023-08-01T07:25:24;20.70;61.30
9425;DHT22;17139;52.140;11.636;2023-08-01T07:27:51;20.20;62.30
9425;DHT22;17139;52.140;11.636;2023-08-01T07:30:18;19.90;63.30
9425;DHT22;17139;52.140;11.636;2023-08-01T07:32:45;19.70;63.70
9425;DHT22;17139;52.140;11.636;2023-08-01T07:35:13;20.40;62.50
9425;DHT22;17139;52.140;11.636;2023-08-01T07:37:40;20.00;62.80
9425;DHT22;17139;52.140;11.636;2023-08-01T07:40:09;19.80;63.30
9425;DHT22;17139;52.140;11.636;2023-08-01T07:42:36;19.70;63.70
9425;DHT22;17139;52.140;11.636;2023-08-01T07:45:05;19.50;64.00
9425;DHT22;17139;52.140;11.636;2023-08-01T07:47:32;19.50;64.20
9425;DHT22;17139;52.140;11.636;2023-08-01T07:49:59;19.40;64.10
9425;DHT22;17139;52.140;11.636;2023-08-01T07:52:26;19.40;64.20
9425;DHT22;17139;52.140;11.636;2023-08-01T07:54:53;19.20;64.50
9425;DHT22;17139;52.140;11.636;2023-08-01T07:57:24;19.00;64.40
9425;DHT22;17139;52.140;11.636;2023-08-01T07:59:51;19.60;63.40
9425;DHT22;17139;52.140;11.636;2023-08-01T08:02:18;19.10;63.50
9425;DHT22;17139;52.140;11.636;2023-08-01T08:04:45;19.30;63.70
9425;DHT22;17139;52.140;11.636;2023-08-01T08:07:12;18.80;64.40
9425;DHT22;17139;52.140;11.636;2023-08-01T08:09:39;18.30;64.50
9425;DHT22;17139;52.140;11.636;2023-08-01T08:12:06;18.00;65.30
9425;DHT22;17139;52.140;11.636;2023-08-01T08:14:35;17.70;65.80
9425;DHT22;17139;52.140;11.636;2023-08-01T08:17:03;17.60;66.40
9425;DHT22;17139;52.140;11.636;2023-08-01T08:19:30;17.40;67.40
9425;DHT22;17139;52.140;11.636;2023-08-01T08:21:57;17.30;66.90
9425;DHT22;17139;52.140;11.636;2023-08-01T08:24:24;17.40;67.80
9425;DHT22;17139;52.140;11.636;2023-08-01T08:26:51;17.30;66.90
9425;DHT22;17139;52.140;11.636;2023-08-01T08:29:18;17.00;67.00
9425;DHT22;17139;52.140;11.636;2023-08-01T08:31:46;16.90;67.30
9425;DHT22;17139;52.140;11.636;2023-08-01T08:34:13;16.80;67.50
9425;DHT22;17139;52.140;11.636;2023-08-01T08:36:40;16.60;67.50
9425;DHT22;17139;52.140;11.636;2023-08-01T08:39:07;16.50;67.60
9425;DHT22;17139;52.140;11.636;2023-08-01T08:41:38;16.40;67.60
9425;DHT22;17139;52.140;11.636;2023-08-01T08:44:07;16.30;67.70
9425;DHT22;17139;52.140;11.636;2023-08-01T08:46:39;16.30;67.80
9425;DHT22;17139;52.140;11.636;2023-08-01T08:49:08;16.30;67.80
9425;DHT22;17139;52.140;11.636;2023-08-01T08:51:36;16.50;68.50
9425;DHT22;17139;52.140;11.636;2023-08-01T08:54:05;16.50;67.60
9425;DHT22;17139;52.140;11.636;2023-08-01T08:56:33;16.30;67.60
9425;DHT22;17139;52.140;11.636;2023-08-01T08:59:01;17.20;67.60
9425;DHT22;17139;52.140;11.636;2023-08-01T09:01:29;16.80;67.00
9425;DHT22;17139;52.140;11.636;2023-08-01T09:03:58;16.60;67.40
9425;DHT22;17139;52.140;11.636;2023-08-01T09:06:30;16.50;67.80
9425;DHT22;17139;52.140;11.636;2023-08-01T09:09:02;16.60;68.20
9425;DHT22;17139;52.140;11.636;2023-08-01T09:11:38;16.60;68.00
9425;DHT22;17139;52.140;11.636;2023-08-01T09:14:06;16.60;67.80
9425;DHT22;17139;52.140;11.636;2023-08-01T09:16:33;16.60;68.70
9425;DHT22;17139;52.140;11.636;2023-08-01T09:19:00;16.70;68.00
9425;DHT22;17139;52.140;11.636;2023-08-01T09:21:32;16.80;67.80
9425;DHT22;17139;52.140;11.636;2023-08-01T09:24:08;16.90;67.70
9425;DHT22;17139;52.140;11.636;2023-08-01T09:26:37;17.70;67.50
9425;DHT22;17139;52.140;11.636;2023-08-01T09:29:04;17.70;67.20
9425;DHT22;17139;52.140;11.636;2023-08-01T09:31:34;17.60;66.70
9425;DHT22;17139;52.140;11.636;2023-08-01T09:34:01;17.50;66.90
9425;DHT22;17139;52.140;11.636;2023-08-01T09:36:31;17.40;67.20
9425;DHT22;17139;52.140;11.636;2023-08-01T09:38:59;17.40;67.30
9425;DHT22;17139;52.140;11.636;2023-08-01T09:41:26;17.40;67.20
9425;DHT22;17139;52.140;11.636;2023-08-01T09:43:53;17.60;67.50
9425;DHT22;17139;52.140;11.636;2023-08-01T09:46:21;18.00;66.90
9425;DHT22;17139;52.140;11.636;2023-08-01T09:48:48;17.90;66.30
9425;DHT22;17139;52.140;11.636;2023-08-01T09:51:16;18.60;64.00
9425;DHT22;17139;52.140;11.636;2023-08-01T09:53:49;18.30;64.40
9425;DHT22;17139;52.140;11.636;2023-08-01T09:56:19;17.90;65.00
9425;DHT22;17139;52.140;11.636;2023-08-01T09:58:47;17.70;65.60
9425;DHT22;17139;52.140;11.636;2023-08-01T10:01:15;17.60;66.00
9425;DHT22;17139;52.140;11.636;2023-08-01T10:03:46;17.50;66.30
9425;DHT22;17139;52.140;11.636;2023-08-01T10:06:17;17.60;66.50
9425;DHT22;17139;52.140;11.636;2023-08-01T10:08:46;17.60;66.60
9425;DHT22;17139;52.140;11.636;2023-08-01T10:11:16;17.80;66.50
9425;DHT22;17139;52.140;11.636;2023-08-01T10:13:43;18.10;66.20
9425;DHT22;17139;52.140;11.636;2023-08-01T10:16:11;19.00;64.30
9425;DHT22;17139;52.140;11.636;2023-08-01T10:18:39;19.00;64.30
9425;DHT22;17139;52.140;11.636;2023-08-01T10:21:08;19.00;64.30
9425;DHT22;17139;52.140;11.636;2023-08-01T10:23:35;19.00;64.30
9425;DHT22;17139;52.140;11.636;2023-08-01T10:26:05;19.00;64.30
9425;DHT22;17139;52.140;11.636;2023-08-01T10:28:37;19.20;64.70
9425;DHT22;17139;52.140;11.636;2023-08-01T10:31:09;19.30;64.60
9425;DHT22;17139;52.140;11.636;2023-08-01T10:33:37;19.30;64.60
9425;DHT22;17139;52.140;11.636;2023-08-01T10:36:13;20.00;64.10
9425;DHT22;17139;52.140;11.636;2023-08-01T10:38:48;19.90;63.70
9425;DHT22;17139;52.140;11.636;2023-08-01T10:41:29;20.30;62.60
9425;DHT22;17139;52.140;11.636;2023-08-01T10:44:09;20.10;63.00
9425;DHT22;17139;52.140;11.636;2023-08-01T10:46:46;19.80;63.40
9425;DHT22;17139;52.140;11.636;2023-08-01T10:49:13;19.60;63.70
9425;DHT22;17139;52.140;11.636;2023-08-01T10:51:40;19.60;64.10
9425;DHT22;17139;52.140;11.636;2023-08-01T10:54:18;19.70;64.20
9425;DHT22;17139;52.140;11.636;2023-08-01T10:56:45;19.90;63.90
9425;DHT22;17139;52.140;11.636;2023-08-01T10:59:14;20.80;60.90
9425;DHT22;17139;52.140;11.636;2023-08-01T11:01:45;20.40;61.90
9425;DHT22;17139;52.140;11.636;2023-08-01T11:04:17;20.10;62.40
9425;DHT22;17139;52.140;11.636;2023-08-01T11:06:45;20.70;60.30
9425;DHT22;17139;52.140;11.636;2023-08-01T11:09:17;20.40;61.70
9425;DHT22;17139;52.140;11.636;2023-08-01T11:11:44;20.10;62.50
9425;DHT22;17139;52.140;11.636;2023-08-01T11:14:13;20.00;62.70
9425;DHT22;17139;52.140;11.636;2023-08-01T11:16:41;20.10;62.80
9425;DHT22;17139;52.140;11.636;2023-08-01T11:19:18;21.00;59.90
9425;DHT22;17139;52.140;11.636;2023-08-01T11:21:46;20.90;61.00
9425;DHT22;17139;52.140;11.636;2023-08-01T11:24:13;21.40;58.30
9425;DHT22;17139;52.140;11.636;2023-08-01T11:26:42;21.00;59.60
9425;DHT22;17139;52.140;11.636;2023-08-01T11:29:09;21.20;58.50
9425;DHT22;17139;52.140;11.636;2023-08-01T11:31:38;20.90;59.70
9425;DHT22;17139;52.140;11.636;2023-08-01T11:34:07;20.70;60.60
9425;DHT22;17139;52.140;11.636;2023-08-01T11:36:35;20.60;60.90
9425;DHT22;17139;52.140;11.636;2023-08-01T11:39:04;20.50;61.30
9425;DHT22;17139;52.140;11.636;2023-08-01T11:41:31;20.60;61.70
9425;DHT22;17139;52.140;11.636;2023-08-01T11:44:02;20.60;61.60
9425;DHT22;17139;52.140;11.636;2023-08-01T11:46:33;20.80;61.00
9425;DHT22;17139;52.140;11.636;2023-08-01T11:49:03;21.40;58.30
9425;DHT22;17139;52.140;11.636;2023-08-01T11:51:30;21.40;59.50
9425;DHT22;17139;52.140;11.636;2023-08-01T11:54:05;22.00;57.20
9425;DHT22;17139;52.140;11.636;2023-08-01T11:56:33;22.50;55.10
9425;DHT22;17139;52.140;11.636;2023-08-01T11:59:07;22.20;56.80
9425;DHT22;17139;52.140;11.636;2023-08-01T12:01:38;22.00;57.50
9425;DHT22;17139;52.140;11.636;2023-08-01T12:04:07;21.90;58.30
9425;DHT22;17139;52.140;11.636;2023-08-01T12:06:34;21.90;58.50
9425;DHT22;17139;52.140;11.636;2023-08-01T12:09:10;21.80;58.60
9425;DHT22;17139;52.140;11.636;2023-08-01T12:11:37;22.30;55.30
9425;DHT22;17139;52.140;11.636;2023-08-01T12:14:06;22.10;57.30
9425;DHT22;17139;52.140;11.636;2023-08-01T12:16:35;22.10;56.90
9425;DHT22;17139;52.140;11.636;2023-08-01T12:19:02;22.10;57.30
9425;DHT22;17139;52.140;11.636;2023-08-01T12:21:32;21.90;57.90
9425;DHT22;17139;52.140;11.636;2023-08-01T12:24:00;21.80;58.00
9425;DHT22;17139;52.140;11.636;2023-08-01T12:26:27;21.60;58.10
9425;DHT22;17139;52.140;11.636;2023-08-01T12:28:54;21.50;58.40
9425;DHT22;17139;52.140;11.636;2023-08-01T12:31:22;21.40;58.80
9425;DHT22;17139;52.140;11.636;2023-08-01T12:33:49;21.40;58.90
9425;DHT22;17139;52.140;11.636;2023-08-01T12:36:18;21.40;58.40
9425;DHT22;17139;52.140;11.636;2023-08-01T12:38:46;21.50;58.40
9425;DHT22;17139;52.140;11.636;2023-08-01T12:41:13;21.40;57.80
9425;DHT22;17139;52.140;11.636;2023-08-01T12:43:40;22.00;53.90
9425;DHT22;17139;52.140;11.636;2023-08-01T12:46:07;21.70;56.10
9425;DHT22;17139;52.140;11.636;2023-08-01T12:48:34;21.60;57.00
9425;DHT22;17139;52.140;11.636;2023-08-01T12:51:02;21.60;57.00
9425;DHT22;17139;52.140;11.636;2023-08-01T12:53:29;21.50;56.90
9425;DHT22;17139;52.140;11.636;2023-08-01T12:55:57;21.50;57.10
9425;DHT22;17139;52.140;11.636;2023-08-01T12:58:25;21.60;57.20
9425;DHT22;17139;52.140;11.636;2023-08-01T13:00:53;21.70;58.20
9425;DHT22;17139;52.140;11.636;2023-08-01T13:03:20;22.30;54.70
9425;DHT22;17139;52.140;11.636;2023-08-01T13:05:47;22.20;55.60
9425;DHT22;17139;52.140;11.636;2023-08-01T13:08:14;22.10;55.10
9425;DHT22;17139;52.140;11.636;2023-08-01T13:10:41;22.10;56.20
9425;DHT22;17139;52.140;11.636;2023-08-01T13:13:12;22.00;56.60
9425;DHT22;17139;52.140;11.636;2023-08-01T13:15:39;21.90;57.00
9425;DHT22;17139;52.140;11.636;2023-08-01T13:18:06;21.80;57.10
9425;DHT22;17139;52.140;11.636;2023-08-01T13:20:33;21.90;57.20
9425;DHT22;17139;52.140;11.636;2023-08-01T13:23:00;22.00;56.50
9425;DHT22;17139;52.140;11.636;2023-08-01T13:25:27;21.90;56.80
9425;DHT22;17139;52.140;11.636;2023-08-01T13:27:54;22.50;53.00
9425;DHT22;17139;52.140;11.636;2023-08-01T13:30:22;22.20;54.90
9425;DHT22;17139;52.140;11.636;2023-08-01T13:32:49;22.10;55.60
9425;DHT22;17139;52.140;11.636;2023-08-01T13:35:16;22.00;56.00
9425;DHT22;17139;52.140;11.636;2023-08-01T13:37:43;21.90;56.00
9425;DHT22;17139;52.140;11.636;2023-08-01T13:40:11;21.80;56.70
9425;DHT22;17139;52.140;11.636;2023-08-01T13:42:40;21.70;56.90
9425;DHT22;17139;52.140;11.636;2023-08-01T13:45:07;21.70;56.90
9425;DHT22;17139;52.140;11.636;2023-08-01T13:47:35;21.60;56.30
9425;DHT22;17139;52.140;11.636;2023-08-01T13:50:03;21.60;55.90
9425;DHT22;17139;52.140;11.636;2023-08-01T13:52:30;21.90;53.40
9425;DHT22;17139;52.140;11.636;2023-08-01T13:54:57;21.80;54.50
9425;DHT22;17139;52.140;11.636;2023-08-01T13:57:26;21.70;55.00
9425;DHT22;17139;52.140;11.636;2023-08-01T13:59:53;21.90;53.00
9425;DHT22;17139;52.140;11.636;2023-08-01T14:02:20;21.80;54.40
9425;DHT22;17139;52.140;11.636;2023-08-01T14:04:51;21.70;54.60
9425;DHT22;17139;52.140;11.636;2023-08-01T14:07:18;21.70;54.50
9425;DHT22;17139;52.140;11.636;2023-08-01T14:09:45;21.60;54.60
9425;DHT22;17139;52.140;11.636;2023-08-01T14:12:12;21.70;55.30
9425;DHT22;17139;52.140;11.636;2023-08-01T14:14:42;22.10;51.80
9425;DHT22;17139;52.140;11.636;2023-08-01T14:17:08;22.10;51.60
9425;DHT22;17139;52.140;11.636;2023-08-01T14:19:35;21.70;53.20
9425;DHT22;17139;52.140;11.636;2023-08-01T14:22:04;21.60;52.70
9425;DHT22;17139;52.140;11.636;2023-08-01T14:24:32;21.30;55.00
9425;DHT22;17139;52.140;11.636;2023-08-01T14:26:58;21.10;55.00
9425;DHT22;17139;52.140;11.636;2023-08-01T14:29:25;21.00;55.30
9425;DHT22;17139;52.140;11.636;2023-08-01T14:31:52;21.20;55.50
9425;DHT22;17139;52.140;11.636;2023-08-01T14:34:19;22.00;52.00
9425;DHT22;17139;52.140;11.636;2023-08-01T14:36:46;21.90;52.60
9425;DHT22;17139;52.140;11.636;2023-08-01T14:39:15;22.50;50.50
9425;DHT22;17139;52.140;11.636;2023-08-01T14:41:42;22.10;52.50
9425;DHT22;17139;52.140;11.636;2023-08-01T14:44:09;22.50;49.70
9425;DHT22;17139;52.140;11.636;2023-08-01T14:46:36;22.50;50.00
9425;DHT22;17139;52.140;11.636;2023-08-01T14:49:03;22.20;51.60
9425;DHT22;17139;52.140;11.636;2023-08-01T14:51:30;21.90;52.60
9425;DHT22;17139;52.140;11.636;2023-08-01T14:53:57;21.80;53.60
9425;DHT22;17139;52.140;11.636;2023-08-01T14:56:25;21.80;53.80
9425;DHT22;17139;52.140;11.636;2023-08-01T14:58:52;22.10;52.10
9425;DHT22;17139;52.140;11.636;2023-08-01T15:01:19;21.90;53.30
9425;DHT22;17139;52.140;11.636;2023-08-01T15:03:46;22.10;52.80
9425;DHT22;17139;52.140;11.636;2023-08-01T15:06:13;21.90;53.80
9425;DHT22;17139;52.140;11.636;2023-08-01T15:08:41;21.70;54.10
9425;DHT22;17139;52.140;11.636;2023-08-01T15:11:08;21.50;55.00
9425;DHT22;17139;52.140;11.636;2023-08-01T15:13:36;21.20;54.60
9425;DHT22;17139;52.140;11.636;2023-08-01T15:16:08;20.90;54.50
9425;DHT22;17139;52.140;11.636;2023-08-01T15:18:35;20.60;54.90
9425;DHT22;17139;52.140;11.636;2023-08-01T15:21:02;20.60;54.40
9425;DHT22;17139;52.140;11.636;2023-08-01T15:23:29;20.30;55.00
9425;DHT22;17139;52.140;11.636;2023-08-01T15:25:57;20.10;55.20
9425;DHT22;17139;52.140;11.636;2023-08-01T15:28:25;19.90;55.60
9425;DHT22;17139;52.140;11.636;2023-08-01T15:31:03;19.80;55.70
9425;DHT22;17139;52.140;11.636;2023-08-01T15:33:31;19.80;56.00